Terminal Aerodrome Forecast
Issued by NWS

Home | Current Version | Previous Version | Text Only | Print | Product List | Glossary On
Versions: 1 2 3 4 5 6 7 8 9 10 11 12 13
000
FTUS46 KLOX 171700
TAFOXR
TAF
KOXR 171738Z 1718/1818 28008KT P6SM SKC
     FM172000 28015KT P6SM FEW100
     FM180300 27008KT P6SM SCT005
     FM180700 VRB03KT 5SM BR OVC007
     FM181300 VRB03KT 2SM BR OVC003
     FM181630 VRB05KT P6SM SCT004=

USA.gov is the U.S. government's official web portal to all federal, state and local government web resources and services.